Time;durP1;ratioP1;P1;durP2;ratioP2;P2;SDS_P1;SDS_P2;PMS_P1;PMS_P2;Temp;Humidity;BMP_temperature;BMP_pressure;BME280_temperature;BME280_humidity;BME280_pressure;Samples;Min_cycle;Max_cycle;Signal;HPM_P1;HPM_P2
2022/06/21 00:00:01;;;;;;;6.32;3.40;;;;;;;;;;5112108;28;20032;-63
2022/06/21 00:02:26;;;;;;;4.63;3.40;;;;;;;;;;5110438;28;20494;-63
2022/06/21 00:04:53;;;;;;;8.48;3.70;;;;;;;;;;5090227;28;20048;-63
2022/06/21 00:07:24;;;;;;;6.63;3.40;;;;;;;;;;5100526;28;20036;-63
2022/06/21 00:09:50;;;;;;;7.32;3.50;;;;;;;;;;5112066;28;20023;-63
2022/06/21 00:12:16;;;;;;;5.40;3.50;;;;;;;;;;5107671;28;20102;-63
2022/06/21 00:14:42;;;;;;;4.70;3.08;;;;;;;;;;5109831;28;20110;-63
2022/06/21 00:17:13;;;;;;;6.47;3.40;;;;;;;;;;5095915;28;20127;-64
2022/06/21 00:19:41;;;;;;;7.20;3.65;;;;;;;;;;5092621;28;20032;-62
2022/06/21 00:22:17;;;;;;;5.53;3.47;;;;;;;;;;5109212;28;20043;-63
2022/06/21 00:24:43;;;;;;;5.93;3.55;;;;;;;;;;5112006;28;20107;-62
2022/06/21 00:27:12;;;;;;;10.13;3.97;;;;;;;;;;5107186;28;20034;-63
2022/06/21 00:29:38;;;;;;;4.30;3.30;;;;;;;;;;5109130;28;20102;-63
2022/06/21 00:32:04;;;;;;;7.55;3.50;;;;;;;;;;5109958;28;20118;-62
2022/06/21 00:34:29;;;;;;;7.72;3.63;;;;;;;;;;5107994;28;20070;-62
2022/06/21 00:37:00;;;;;;;6.45;3.70;;;;;;;;;;5109698;28;20023;-63
2022/06/21 00:39:25;;;;;;;7.25;3.63;;;;;;;;;;5108591;28;20023;-64
2022/06/21 00:41:56;;;;;;;6.38;3.47;;;;;;;;;;5111683;28;20565;-63
2022/06/21 00:44:43;;;;;;;10.60;3.75;;;;;;;;;;5108831;28;20051;-64
2022/06/21 00:47:23;;;;;;;9.00;3.65;;;;;;;;;;5111135;28;20095;-64
2022/06/21 00:49:54;;;;;;;6.53;3.80;;;;;;;;;;5098474;28;20376;-64
2022/06/21 00:52:27;;;;;;;8.15;3.35;;;;;;;;;;5108717;28;20044;-65
2022/06/21 00:54:57;;;;;;;7.15;3.97;;;;;;;;;;5109018;28;20050;-65
2022/06/21 00:57:28;;;;;;;8.20;3.83;;;;;;;;;;5110674;28;20110;-64
2022/06/21 00:59:58;;;;;;;7.32;3.63;;;;;;;;;;5110263;28;20839;-64
2022/06/21 01:02:33;;;;;;;6.35;3.45;;;;;;;;;;5105751;28;20039;-65
2022/06/21 01:05:01;;;;;;;5.60;3.60;;;;;;;;;;5101516;28;20036;-65
2022/06/21 01:07:27;;;;;;;5.18;3.58;;;;;;;;;;5113957;28;20429;-64
2022/06/21 01:10:14;;;;;;;7.18;3.63;;;;;;;;;;5112416;28;20035;-64
2022/06/21 01:12:53;;;;;;;6.53;3.72;;;;;;;;;;5114803;28;20039;-64
2022/06/21 01:15:26;;;;;;;9.48;3.60;;;;;;;;;;5110688;28;20031;-63
2022/06/21 01:17:56;;;;;;;7.93;3.30;;;;;;;;;;5095910;28;20043;-64
2022/06/21 01:20:25;;;;;;;8.13;3.70;;;;;;;;;;5110931;28;20039;-63
2022/06/21 01:23:17;;;;;;;7.95;3.80;;;;;;;;;;5109792;28;20034;-64
2022/06/21 01:25:55;;;;;;;6.60;3.65;;;;;;;;;;5101552;28;20117;-63
2022/06/21 01:28:21;;;;;;;7.10;3.95;;;;;;;;;;5103012;28;20038;-63
2022/06/21 01:30:52;;;;;;;8.93;3.88;;;;;;;;;;5111591;28;20030;-64
2022/06/21 01:33:33;;;;;;;7.00;3.95;;;;;;;;;;5110531;28;20035;-63
2022/06/21 01:36:01;;;;;;;6.50;3.75;;;;;;;;;;5112166;28;20035;-64
2022/06/21 01:38:38;;;;;;;7.07;4.00;;;;;;;;;;5112096;28;20036;-64
2022/06/21 01:41:10;;;;;;;7.63;3.80;;;;;;;;;;5110654;28;20105;-64
2022/06/21 01:43:40;;;;;;;9.20;3.95;;;;;;;;;;5099966;28;20188;-64
2022/06/21 01:46:10;;;;;;;6.43;4.00;;;;;;;;;;5103632;28;20492;-63
2022/06/21 01:48:40;;;;;;;8.50;4.10;;;;;;;;;;5112464;28;20031;-63
2022/06/21 01:51:08;;;;;;;7.57;3.90;;;;;;;;;;5114171;28;20040;-64
2022/06/21 01:53:36;;;;;;;6.45;4.00;;;;;;;;;;5107765;28;20052;-64
2022/06/21 01:56:08;;;;;;;8.43;3.97;;;;;;;;;;5107428;28;20031;-64
2022/06/21 01:58:41;;;;;;;8.07;4.07;;;;;;;;;;5099879;28;20468;-64
2022/06/21 02:01:22;;;;;;;8.57;4.40;;;;;;;;;;5112004;28;20054;-64
2022/06/21 02:03:53;;;;;;;8.52;5.10;;;;;;;;;;5112766;28;20379;-64
2022/06/21 02:06:21;;;;;;;9.47;4.23;;;;;;;;;;5111832;28;20039;-64
2022/06/21 02:09:00;;;;;;;9.07;4.10;;;;;;;;;;5112112;28;20028;-64
2022/06/21 02:11:32;;;;;;;7.57;4.13;;;;;;;;;;5113149;28;20031;-64
2022/06/21 02:16:49;;;;;;;8.95;4.53;;;;;;;;;;5109141;28;20211;-64
2022/06/21 02:19:44;;;;;;;10.68;4.25;;;;;;;;;;5112869;28;20038;-64
2022/06/21 02:22:19;;;;;;;7.32;4.28;;;;;;;;;;5109577;28;20064;-64
2022/06/21 02:24:45;;;;;;;7.82;4.70;;;;;;;;;;5113225;28;20057;-65
2022/06/21 02:27:14;;;;;;;7.18;4.45;;;;;;;;;;5108831;28;20078;-64
2022/06/21 02:29:43;;;;;;;7.32;4.38;;;;;;;;;;5110851;28;20099;-63
2022/06/21 02:32:17;;;;;;;7.95;4.43;;;;;;;;;;5112389;28;20161;-65
2022/06/21 02:34:46;;;;;;;7.65;4.60;;;;;;;;;;5109847;28;21615;-65
2022/06/21 02:37:14;;;;;;;9.27;4.40;;;;;;;;;;5112077;28;20474;-64
2022/06/21 02:39:40;;;;;;;10.80;6.20;;;;;;;;;;5111382;28;20031;-64
2022/06/21 02:42:17;;;;;;;7.35;4.97;;;;;;;;;;5112412;28;20525;-64
2022/06/21 02:44:51;;;;;;;9.93;4.80;;;;;;;;;;5112462;28;20099;-64
2022/06/21 02:47:22;;;;;;;14.30;9.60;;;;;;;;;;5112153;28;20110;-64
2022/06/21 02:50:01;;;;;;;10.57;4.95;;;;;;;;;;5112192;28;20043;-64
2022/06/21 02:52:31;;;;;;;7.45;5.13;;;;;;;;;;5108678;28;20050;-63
2022/06/21 02:55:05;;;;;;;7.90;4.50;;;;;;;;;;5112221;28;20043;-64
2022/06/21 02:57:37;;;;;;;8.07;5.45;;;;;;;;;;5110351;28;20032;-64
2022/06/21 03:00:05;;;;;;;38.47;21.20;;;;;;;;;;5091708;28;20118;-64
2022/06/21 03:02:32;;;;;;;65.47;37.92;;;;;;;;;;5111085;28;20392;-64
2022/06/21 03:05:02;;;;;;;40.60;26.00;;;;;;;;;;5110189;28;20031;-63
2022/06/21 03:07:34;;;;;;;37.90;25.08;;;;;;;;;;5111885;28;20031;-63
2022/06/21 03:10:00;;;;;;;31.08;18.73;;;;;;;;;;5111386;28;20043;-64
2022/06/21 03:12:30;;;;;;;19.42;11.93;;;;;;;;;;5111852;28;20035;-63
2022/06/21 03:15:04;;;;;;;26.20;16.48;;;;;;;;;;5110949;28;20487;-64
2022/06/21 03:17:56;;;;;;;22.95;16.23;;;;;;;;;;5111616;28;20034;-63
2022/06/21 03:20:21;;;;;;;18.35;12.07;;;;;;;;;;5109654;28;20466;-63
2022/06/21 03:22:49;;;;;;;17.55;11.90;;;;;;;;;;5111291;28;20552;-64
2022/06/21 03:25:23;;;;;;;14.05;9.00;;;;;;;;;;5109573;28;20046;-64
2022/06/21 03:27:54;;;;;;;10.48;7.10;;;;;;;;;;5109899;28;20118;-64
2022/06/21 03:30:24;;;;;;;8.18;5.15;;;;;;;;;;5110868;28;20047;-64
2022/06/21 03:32:52;;;;;;;15.38;5.90;;;;;;;;;;5109732;28;20027;-64
2022/06/21 03:35:18;;;;;;;10.73;5.13;;;;;;;;;;5109150;28;20032;-64
2022/06/21 03:37:45;;;;;;;8.70;5.15;;;;;;;;;;5111746;28;20027;-64
2022/06/21 03:43:11;;;;;;;8.85;5.10;;;;;;;;;;5110615;28;20085;-65
2022/06/21 03:45:40;;;;;;;10.07;5.60;;;;;;;;;;5109346;28;20059;-63
2022/06/21 03:48:26;;;;;;;10.95;5.40;;;;;;;;;;5106406;28;20031;-65
2022/06/21 03:50:55;;;;;;;10.90;5.28;;;;;;;;;;5111399;28;20031;-63
2022/06/21 03:53:28;;;;;;;7.95;5.25;;;;;;;;;;5108473;28;20044;-63
2022/06/21 03:56:37;;;;;;;11.82;6.20;;;;;;;;;;5098430;28;20031;-63
2022/06/21 03:59:12;;;;;;;9.07;5.22;;;;;;;;;;5011499;28;20044;-63
2022/06/21 04:01:49;;;;;;;11.35;5.72;;;;;;;;;;5023559;28;20026;-64
2022/06/21 04:04:29;;;;;;;12.48;5.30;;;;;;;;;;5064156;28;20036;-64
2022/06/21 04:07:31;;;;;;;11.90;5.25;;;;;;;;;;5110012;28;20043;-64
2022/06/21 04:10:03;;;;;;;11.13;5.30;;;;;;;;;;5111032;28;20353;-63
2022/06/21 04:12:46;;;;;;;10.18;5.82;;;;;;;;;;5101119;28;20384;-62
2022/06/21 04:15:26;;;;;;;11.90;5.50;;;;;;;;;;5097190;28;20035;-63
2022/06/21 04:17:58;;;;;;;11.67;7.03;;;;;;;;;;5110278;28;20035;-64
2022/06/21 04:20:49;;;;;;;11.55;6.93;;;;;;;;;;5109879;28;20024;-63
2022/06/21 04:23:24;;;;;;;12.70;6.43;;;;;;;;;;5109414;28;20039;-63
2022/06/21 04:26:01;;;;;;;8.98;5.28;;;;;;;;;;5102427;28;20039;-63
2022/06/21 04:28:34;;;;;;;9.45;5.50;;;;;;;;;;5110345;28;20506;-62
2022/06/21 04:31:02;;;;;;;11.55;5.53;;;;;;;;;;5108161;28;20475;-65
2022/06/21 04:33:33;;;;;;;9.48;5.22;;;;;;;;;;5093659;28;20040;-62
2022/06/21 04:36:07;;;;;;;7.50;5.57;;;;;;;;;;5103786;28;20039;-63
2022/06/21 04:38:51;;;;;;;18.50;9.70;;;;;;;;;;5114982;28;20041;-63
2022/06/21 04:41:25;;;;;;;17.33;10.10;;;;;;;;;;5115337;28;20035;-63
2022/06/21 04:44:00;;;;;;;11.65;6.70;;;;;;;;;;5111646;28;20046;-63
2022/06/21 04:46:44;;;;;;;11.48;5.60;;;;;;;;;;5114522;28;20450;-64
2022/06/21 04:49:19;;;;;;;12.55;6.35;;;;;;;;;;5112587;28;20042;-64
2022/06/21 04:51:53;;;;;;;9.18;4.75;;;;;;;;;;5111962;28;20023;-64
2022/06/21 04:54:25;;;;;;;11.23;4.45;;;;;;;;;;5114340;28;20028;-64
2022/06/21 04:57:00;;;;;;;10.95;4.80;;;;;;;;;;5113409;28;20578;-64
2022/06/21 04:59:37;;;;;;;10.45;4.57;;;;;;;;;;5113819;28;20038;-64
2022/06/21 05:02:04;;;;;;;10.05;4.63;;;;;;;;;;5111415;28;20119;-64
2022/06/21 05:04:35;;;;;;;9.85;4.30;;;;;;;;;;5112948;28;20076;-63
2022/06/21 05:07:03;;;;;;;11.27;3.90;;;;;;;;;;5114424;28;20451;-64
2022/06/21 05:09:32;;;;;;;11.55;3.83;;;;;;;;;;5114910;28;20024;-63
2022/06/21 05:12:02;;;;;;;7.07;3.78;;;;;;;;;;5113774;28;20028;-64
2022/06/21 05:14:36;;;;;;;8.10;4.00;;;;;;;;;;5108764;28;20044;-64
2022/06/21 05:17:05;;;;;;;11.10;3.50;;;;;;;;;;5114287;28;20094;-57
2022/06/21 05:19:35;;;;;;;8.45;3.60;;;;;;;;;;5100690;28;20063;-58
2022/06/21 05:22:09;;;;;;;8.97;3.70;;;;;;;;;;5108963;28;20035;-57
2022/06/21 05:24:35;;;;;;;8.40;3.78;;;;;;;;;;5112194;28;20283;-57
2022/06/21 05:27:03;;;;;;;10.50;3.50;;;;;;;;;;5113475;28;20400;-59
2022/06/21 05:29:48;;;;;;;9.73;3.83;;;;;;;;;;5100860;28;20050;-57
2022/06/21 05:32:25;;;;;;;12.93;3.65;;;;;;;;;;5102430;28;20047;-55
2022/06/21 05:34:55;;;;;;;8.07;3.30;;;;;;;;;;5093128;28;20144;-54
2022/06/21 05:37:31;;;;;;;9.10;3.40;;;;;;;;;;5112038;28;20023;-58
2022/06/21 05:40:00;;;;;;;7.28;3.25;;;;;;;;;;5112136;28;20088;-57
2022/06/21 05:42:27;;;;;;;7.45;3.25;;;;;;;;;;5113399;28;20110;-53
2022/06/21 05:44:58;;;;;;;12.70;4.10;;;;;;;;;;5112127;28;20066;-59
2022/06/21 05:47:37;;;;;;;7.05;3.33;;;;;;;;;;5112754;28;20081;-55
2022/06/21 05:50:06;;;;;;;8.75;3.47;;;;;;;;;;5113248;28;20036;-59
2022/06/21 05:52:42;;;;;;;9.18;3.35;;;;;;;;;;5111754;28;20040;-60
2022/06/21 05:55:26;;;;;;;9.30;3.60;;;;;;;;;;5113571;28;20105;-56
2022/06/21 05:57:56;;;;;;;10.57;4.03;;;;;;;;;;5111853;28;20023;-52
2022/06/21 06:00:28;;;;;;;8.63;4.20;;;;;;;;;;5112719;28;20031;-52
2022/06/21 06:03:02;;;;;;;7.20;3.83;;;;;;;;;;5107092;28;20077;-58
2022/06/21 06:05:34;;;;;;;6.57;3.83;;;;;;;;;;5112852;28;20059;-57
2022/06/21 06:08:11;;;;;;;13.55;4.15;;;;;;;;;;5112540;28;20043;-56
2022/06/21 06:10:40;;;;;;;13.60;4.40;;;;;;;;;;5108028;28;20383;-54
2022/06/21 06:13:13;;;;;;;10.15;3.65;;;;;;;;;;5110770;28;20115;-55
2022/06/21 06:15:55;;;;;;;9.48;3.53;;;;;;;;;;5112422;28;20035;-56
2022/06/21 06:18:35;;;;;;;7.57;3.20;;;;;;;;;;5110928;28;20034;-56
2022/06/21 06:21:13;;;;;;;6.43;2.53;;;;;;;;;;5112576;28;20060;-57
2022/06/21 06:23:54;;;;;;;13.20;2.85;;;;;;;;;;5105628;28;20042;-56
2022/06/21 06:26:24;;;;;;;10.13;2.72;;;;;;;;;;5101467;28;20376;-57
2022/06/21 06:28:56;;;;;;;8.82;2.60;;;;;;;;;;5092525;28;20028;-57
2022/06/21 06:31:52;;;;;;;8.52;2.33;;;;;;;;;;5110825;28;20123;-58
2022/06/21 06:34:23;;;;;;;11.95;2.63;;;;;;;;;;5081680;28;20044;-58
2022/06/21 06:36:53;;;;;;;6.75;2.50;;;;;;;;;;5110729;28;20027;-57
2022/06/21 06:39:29;;;;;;;7.28;2.30;;;;;;;;;;5112701;28;20384;-58
2022/06/21 06:42:09;;;;;;;12.38;3.25;;;;;;;;;;5090107;28;20039;-57
2022/06/21 06:44:41;;;;;;;7.50;2.63;;;;;;;;;;5091744;28;20032;-59
2022/06/21 06:47:14;;;;;;;9.65;3.03;;;;;;;;;;5112807;28;20479;-56
2022/06/21 06:50:14;;;;;;;10.63;3.60;;;;;;;;;;5092937;28;20048;-56
2022/06/21 06:52:45;;;;;;;7.10;2.90;;;;;;;;;;5066214;28;20047;-57
2022/06/21 06:55:14;;;;;;;7.15;3.20;;;;;;;;;;5106526;28;20066;-58
2022/06/21 06:57:42;;;;;;;9.73;3.05;;;;;;;;;;5105631;28;20035;-55
2022/06/21 07:00:17;;;;;;;7.88;2.80;;;;;;;;;;5108175;28;20126;-56
2022/06/21 07:02:56;;;;;;;10.45;2.75;;;;;;;;;;5107477;28;20042;-57
2022/06/21 07:05:38;;;;;;;6.78;3.38;;;;;;;;;;5094685;28;20112;-55
2022/06/21 07:08:37;;;;;;;10.20;3.47;;;;;;;;;;5092959;28;20118;-57
2022/06/21 07:11:47;;;;;;;7.82;3.72;;;;;;;;;;5112132;28;20407;-58
2022/06/21 07:14:25;;;;;;;6.53;3.08;;;;;;;;;;5071106;28;20048;-58
2022/06/21 07:16:55;;;;;;;8.90;3.40;;;;;;;;;;5093034;28;20054;-58
2022/06/21 07:19:21;;;;;;;8.23;3.10;;;;;;;;;;5109046;28;20028;-57
2022/06/21 07:21:47;;;;;;;8.77;3.10;;;;;;;;;;5109227;28;20502;-58
2022/06/21 07:24:15;;;;;;;9.38;2.60;;;;;;;;;;5111352;28;20039;-57
2022/06/21 07:26:51;;;;;;;7.63;2.63;;;;;;;;;;5110609;28;20031;-58
2022/06/21 07:29:46;;;;;;;8.80;2.78;;;;;;;;;;5107538;28;20027;-56
2022/06/21 07:32:15;;;;;;;6.38;2.72;;;;;;;;;;5112386;28;20577;-58
2022/06/21 07:34:48;;;;;;;8.60;2.90;;;;;;;;;;5108234;28;20035;-54
2022/06/21 07:37:20;;;;;;;8.15;2.63;;;;;;;;;;5111680;28;20043;-57
2022/06/21 07:39:59;;;;;;;6.95;2.97;;;;;;;;;;5108999;28;20152;-55
2022/06/21 07:42:30;;;;;;;6.18;2.50;;;;;;;;;;5092478;28;20036;-55
2022/06/21 07:45:08;;;;;;;9.57;2.58;;;;;;;;;;5111166;28;20024;-56
2022/06/21 07:47:50;;;;;;;6.28;2.20;;;;;;;;;;5097316;28;20036;-59
2022/06/21 07:50:31;;;;;;;10.15;2.50;;;;;;;;;;5092237;28;20043;-58
2022/06/21 07:53:09;;;;;;;7.55;2.47;;;;;;;;;;5107127;28;20081;-57
2022/06/21 07:55:39;;;;;;;8.98;2.38;;;;;;;;;;5112075;28;20047;-58
2022/06/21 07:58:14;;;;;;;7.63;2.58;;;;;;;;;;5110920;28;20039;-55
2022/06/21 08:09:24;;;;;;;7.95;2.53;;;;;;;;;;5092362;28;20074;-57
2022/06/21 08:11:53;;;;;;;9.20;2.70;;;;;;;;;;5113965;28;20070;-56
2022/06/21 08:14:19;;;;;;;5.82;2.50;;;;;;;;;;5115856;28;20034;-57
2022/06/21 08:16:47;;;;;;;5.57;2.30;;;;;;;;;;5113093;28;20031;-57
2022/06/21 08:19:24;;;;;;;5.15;2.28;;;;;;;;;;5096292;28;20380;-56
2022/06/21 08:21:56;;;;;;;6.32;2.22;;;;;;;;;;5094973;28;20039;-54
2022/06/21 08:24:30;;;;;;;6.90;2.33;;;;;;;;;;5116464;28;20037;-56
2022/06/21 08:27:05;;;;;;;5.35;1.80;;;;;;;;;;5105829;28;20645;-56
2022/06/21 08:29:53;;;;;;;5.18;1.88;;;;;;;;;;5109358;28;20452;-54
2022/06/21 08:32:31;;;;;;;5.78;2.10;;;;;;;;;;5113907;28;20027;-56
2022/06/21 08:35:04;;;;;;;6.13;1.80;;;;;;;;;;5114892;28;20036;-60
2022/06/21 08:37:39;;;;;;;8.10;2.10;;;;;;;;;;5111067;28;20035;-55
2022/06/21 08:40:36;;;;;;;6.15;1.70;;;;;;;;;;5108018;28;20031;-54
2022/06/21 08:43:17;;;;;;;5.90;1.98;;;;;;;;;;5109022;28;20066;-54
2022/06/21 08:45:53;;;;;;;6.25;2.10;;;;;;;;;;5110041;28;20108;-57
2022/06/21 08:48:34;;;;;;;4.68;1.90;;;;;;;;;;5113364;28;20044;-56
2022/06/21 08:51:40;;;;;;;2.75;1.60;;;;;;;;;;5096782;28;20040;-56
2022/06/21 08:54:26;;;;;;;4.80;2.00;;;;;;;;;;5103431;28;20032;-56
2022/06/21 08:57:10;;;;;;;3.33;1.95;;;;;;;;;;5114428;28;20027;-57
2022/06/21 08:59:58;;;;;;;4.82;1.80;;;;;;;;;;5090254;28;20020;-56
2022/06/21 09:02:55;;;;;;;4.97;2.00;;;;;;;;;;5106907;28;20110;-56
2022/06/21 09:05:57;;;;;;;6.65;2.10;;;;;;;;;;5110317;28;20111;-52
2022/06/21 09:08:31;;;;;;;4.60;1.98;;;;;;;;;;5113878;28;20079;-55
2022/06/21 09:10:56;;;;;;;7.07;1.98;;;;;;;;;;5114250;28;20043;-54
2022/06/21 09:13:22;;;;;;;4.18;1.98;;;;;;;;;;5091640;28;20028;-53
2022/06/21 09:16:09;;;;;;;6.63;2.08;;;;;;;;;;5113600;28;20119;-56
2022/06/21 09:18:46;;;;;;;10.48;2.25;;;;;;;;;;5098993;28;20043;-55
2022/06/21 09:21:11;;;;;;;6.43;2.30;;;;;;;;;;5097353;28;20024;-55
2022/06/21 09:23:54;;;;;;;5.55;1.98;;;;;;;;;;5112517;28;20042;-58
2022/06/21 09:26:35;;;;;;;3.70;1.77;;;;;;;;;;5094669;28;20049;-58
2022/06/21 09:29:31;;;;;;;6.55;1.98;;;;;;;;;;5112085;28;20068;-57
2022/06/21 09:32:20;;;;;;;3.92;1.60;;;;;;;;;;5092594;28;20036;-57
2022/06/21 09:35:00;;;;;;;4.05;1.70;;;;;;;;;;5113255;28;20474;-56
2022/06/21 09:37:49;;;;;;;5.23;1.87;;;;;;;;;;5113507;28;20031;-56
2022/06/21 09:40:14;;;;;;;3.47;1.50;;;;;;;;;;5044442;28;20051;-53
2022/06/21 09:43:06;;;;;;;6.50;1.70;;;;;;;;;;5100702;28;20024;-58
2022/06/21 09:45:41;;;;;;;5.63;1.70;;;;;;;;;;5113851;28;20478;-58
2022/06/21 09:48:18;;;;;;;2.55;1.45;;;;;;;;;;5112254;28;20030;-55
2022/06/21 09:51:14;;;;;;;4.63;1.58;;;;;;;;;;5113694;28;20099;-58
2022/06/21 09:53:49;;;;;;;3.47;1.55;;;;;;;;;;5094599;28;20134;-58
2022/06/21 09:56:42;;;;;;;4.35;1.40;;;;;;;;;;5114122;28;20039;-57
2022/06/21 09:59:23;;;;;;;2.95;1.40;;;;;;;;;;5111230;28;20028;-57
2022/06/21 10:02:17;;;;;;;5.60;1.92;;;;;;;;;;5110914;28;20028;-58
2022/06/21 10:05:03;;;;;;;5.82;1.90;;;;;;;;;;5109159;28;20039;-60
2022/06/21 10:07:44;;;;;;;6.38;2.03;;;;;;;;;;5111329;28;20042;-57
2022/06/21 10:10:28;;;;;;;;;;;;;;;;;;5107258;28;20361;-57
2022/06/21 10:13:05;;;;;;;4.63;1.95;;;;;;;;;;5074542;28;19916;-57
2022/06/21 10:15:50;;;;;;;10.50;1.90;;;;;;;;;;5104272;28;20039;-57
2022/06/21 10:18:25;;;;;;;7.82;4.05;;;;;;;;;;5112474;28;20023;-60
2022/06/21 10:20:59;;;;;;;5.72;2.30;;;;;;;;;;5112310;28;20414;-59
2022/06/21 10:23:39;;;;;;;7.75;2.33;;;;;;;;;;5112630;28;20143;-57
2022/06/21 10:26:18;;;;;;;4.88;1.88;;;;;;;;;;5108573;28;20111;-59
2022/06/21 10:28:53;;;;;;;7.10;2.13;;;;;;;;;;5110614;28;20039;-59
2022/06/21 10:31:41;;;;;;;8.95;2.00;;;;;;;;;;5109791;28;20774;-58
2022/06/21 10:34:15;;;;;;;6.45;2.10;;;;;;;;;;5091074;28;20050;-59
2022/06/21 10:37:07;;;;;;;4.53;1.98;;;;;;;;;;5110318;28;20100;-58
2022/06/21 10:39:51;;;;;;;6.70;2.58;;;;;;;;;;5071457;28;20043;-57
2022/06/21 10:42:47;;;;;;;7.75;2.45;;;;;;;;;;5095108;28;20413;-58
2022/06/21 10:45:35;;;;;;;7.45;2.30;;;;;;;;;;5111998;28;20433;-52
2022/06/21 10:48:37;;;;;;;11.82;6.80;;;;;;;;;;5111672;28;20031;-56
2022/06/21 10:51:40;;;;;;;5.40;2.08;;;;;;;;;;5093354;28;20102;-59
2022/06/21 10:54:47;;;;;;;5.35;1.80;;;;;;;;;;5109383;28;21054;-60
2022/06/21 10:58:16;;;;;;;5.25;1.90;;;;;;;;;;5072777;28;20044;-59
2022/06/21 11:03:59;;;;;;;3.75;1.75;;;;;;;;;;5098512;28;20516;-60
2022/06/21 11:06:54;;;;;;;5.85;1.90;;;;;;;;;;5076049;28;20043;-59
2022/06/21 11:09:29;;;;;;;4.35;1.92;;;;;;;;;;5100513;28;20040;-59
2022/06/21 11:15:05;;;;;;;5.40;2.03;;;;;;;;;;5111449;28;20027;-60
2022/06/21 11:17:56;;;;;;;6.88;1.70;;;;;;;;;;5112271;28;20051;-59
2022/06/21 11:20:49;;;;;;;3.55;1.65;;;;;;;;;;5106903;28;20024;-60
2022/06/21 11:23:29;;;;;;;7.22;1.80;;;;;;;;;;5099800;28;20027;-59
2022/06/21 11:26:07;;;;;;;5.85;1.90;;;;;;;;;;5111586;28;20027;-59
2022/06/21 11:29:01;;;;;;;5.05;1.67;;;;;;;;;;5110287;28;20031;-59
2022/06/21 11:31:29;;;;;;;4.55;1.80;;;;;;;;;;5071504;28;20119;-60
2022/06/21 11:34:07;;;;;;;6.40;2.00;;;;;;;;;;5109330;28;20063;-59
2022/06/21 11:36:54;;;;;;;4.47;1.63;;;;;;;;;;5112250;28;20032;-60
2022/06/21 11:39:32;;;;;;;6.45;2.20;;;;;;;;;;5110776;28;20031;-59
2022/06/21 11:42:08;;;;;;;3.88;1.45;;;;;;;;;;5107084;28;20036;-60
2022/06/21 11:44:58;;;;;;;6.95;1.90;;;;;;;;;;5109532;28;20077;-60
2022/06/21 11:47:32;;;;;;;5.25;1.90;;;;;;;;;;5112143;28;20024;-59
2022/06/21 11:50:33;;;;;;;3.67;2.05;;;;;;;;;;5091319;28;20059;-59
2022/06/21 11:53:20;;;;;;;5.97;1.80;;;;;;;;;;5035593;28;20406;-58
2022/06/21 11:55:58;;;;;;;3.25;1.80;;;;;;;;;;5091021;28;20070;-60
2022/06/21 11:58:41;;;;;;;6.13;2.00;;;;;;;;;;5089234;28;20040;-59
2022/06/21 12:01:19;;;;;;;5.70;1.90;;;;;;;;;;5086748;28;20040;-59
2022/06/21 12:04:04;;;;;;;5.88;1.65;;;;;;;;;;5089388;28;20036;-59
2022/06/21 12:06:48;;;;;;;4.65;2.00;;;;;;;;;;5089425;28;20044;-59
2022/06/21 12:09:35;;;;;;;4.95;1.75;;;;;;;;;;5089377;28;20369;-59
2022/06/21 12:12:19;;;;;;;3.60;1.70;;;;;;;;;;5089639;28;20278;-58
2022/06/21 12:15:17;;;;;;;9.18;2.30;;;;;;;;;;5088497;28;20082;-60
2022/06/21 12:17:51;;;;;;;4.15;1.60;;;;;;;;;;5058865;28;20048;-60
2022/06/21 12:20:27;;;;;;;5.18;1.80;;;;;;;;;;5090240;28;20123;-60
2022/06/21 12:23:09;;;;;;;4.40;1.70;;;;;;;;;;5086293;28;20053;-59
2022/06/21 12:25:35;;;;;;;5.60;2.13;;;;;;;;;;5091586;28;20044;-59
2022/06/21 12:28:00;;;;;;;4.80;2.00;;;;;;;;;;5088558;28;20506;-59
2022/06/21 12:30:29;;;;;;;8.60;1.90;;;;;;;;;;5091778;28;20032;-59
2022/06/21 12:33:02;;;;;;;4.53;1.85;;;;;;;;;;5088533;28;20043;-58
2022/06/21 12:35:51;;;;;;;5.93;1.50;;;;;;;;;;5088499;28;20055;-60
2022/06/21 12:38:22;;;;;;;6.53;1.90;;;;;;;;;;5089305;28;20485;-60
2022/06/21 12:40:54;;;;;;;4.45;1.90;;;;;;;;;;5087793;28;20024;-59
2022/06/21 12:43:35;;;;;;;5.97;2.00;;;;;;;;;;5089810;28;20036;-61
2022/06/21 12:46:05;;;;;;;4.65;1.90;;;;;;;;;;5056013;28;20785;-59
2022/06/21 12:48:58;;;;;;;3.65;1.73;;;;;;;;;;5088296;28;20387;-59
2022/06/21 12:51:59;;;;;;;6.68;1.80;;;;;;;;;;5089982;28;20180;-59
2022/06/21 12:54:58;;;;;;;3.58;1.60;;;;;;;;;;5075823;28;20084;-61
2022/06/21 12:57:30;;;;;;;5.10;1.40;;;;;;;;;;5093316;28;20122;-59
2022/06/21 13:00:13;;;;;;;7.30;1.58;;;;;;;;;;5093512;28;20032;-60
2022/06/21 13:03:06;;;;;;;6.90;2.15;;;;;;;;;;5093048;28;20099;-60
2022/06/21 13:05:39;;;;;;;4.93;1.60;;;;;;;;;;5093607;28;20036;-59
2022/06/21 13:08:56;;;;;;;6.50;1.70;;;;;;;;;;5092349;28;20047;-59
2022/06/21 13:11:46;;;;;;;4.97;1.50;;;;;;;;;;5046813;28;20040;-60
2022/06/21 13:14:55;;;;;;;4.53;1.50;;;;;;;;;;5051058;28;20082;-58
2022/06/21 13:17:31;;;;;;;5.80;1.52;;;;;;;;;;5085276;28;20483;-60
2022/06/21 13:20:30;;;;;;;1.98;1.50;;;;;;;;;;5093657;28;20111;-59
2022/06/21 13:23:09;;;;;;;5.95;1.50;;;;;;;;;;5093855;28;20031;-60
2022/06/21 13:26:02;;;;;;;5.97;1.60;;;;;;;;;;5090224;28;20460;-60
2022/06/21 13:28:30;;;;;;;6.45;1.65;;;;;;;;;;5088963;28;20036;-58
2022/06/21 13:31:39;;;;;;;5.07;1.50;;;;;;;;;;5088721;28;20043;-61
2022/06/21 13:34:23;;;;;;;7.35;1.70;;;;;;;;;;5079872;28;20043;-60
2022/06/21 13:36:51;;;;;;;6.32;1.70;;;;;;;;;;5087580;28;20024;-59
2022/06/21 13:39:39;;;;;;;7.43;1.83;;;;;;;;;;5079336;28;20103;-59
2022/06/21 13:45:34;;;;;;;6.68;1.50;;;;;;;;;;5089797;28;20123;-58
2022/06/21 13:48:24;;;;;;;4.22;1.45;;;;;;;;;;5071536;28;20035;-59
2022/06/21 13:51:01;;;;;;;5.70;1.23;;;;;;;;;;5090909;28;20142;-58
2022/06/21 13:53:54;;;;;;;6.75;1.67;;;;;;;;;;5094740;28;20044;-60
2022/06/21 13:56:27;;;;;;;6.25;1.50;;;;;;;;;;5114420;28;20043;-59
2022/06/21 13:58:57;;;;;;;2.78;1.30;;;;;;;;;;5105517;28;20376;-63
2022/06/21 14:01:32;;;;;;;;;;;;;;;;;;5105256;28;20032;-58
2022/06/21 14:04:23;;;;;;;4.57;1.50;;;;;;;;;;5107120;28;19918;-59
2022/06/21 14:07:17;;;;;;;5.18;1.40;;;;;;;;;;5111286;28;20031;-59
2022/06/21 14:10:16;;;;;;;6.57;1.40;;;;;;;;;;5109051;28;20074;-60
2022/06/21 14:12:52;;;;;;;6.60;1.67;;;;;;;;;;5092461;28;20036;-59
2022/06/21 14:15:36;;;;;;;3.60;1.30;;;;;;;;;;5111635;28;20040;-58
2022/06/21 14:18:22;;;;;;;4.70;1.40;;;;;;;;;;5110867;28;20661;-58
2022/06/21 14:21:10;;;;;;;3.38;1.05;;;;;;;;;;5112921;28;20034;-59
2022/06/21 14:23:56;;;;;;;2.75;1.15;;;;;;;;;;5079331;28;20034;-59
2022/06/21 14:26:33;;;;;;;4.15;1.50;;;;;;;;;;5113105;28;20070;-61
2022/06/21 14:29:10;;;;;;;2.33;1.20;;;;;;;;;;5093251;28;20069;-60
2022/06/21 14:31:56;;;;;;;4.50;1.48;;;;;;;;;;5111697;28;20098;-60
2022/06/21 14:34:30;;;;;;;2.95;1.48;;;;;;;;;;5092212;28;20119;-62
2022/06/21 14:37:14;;;;;;;4.60;1.73;;;;;;;;;;5099872;28;20039;-59
2022/06/21 14:40:02;;;;;;;3.63;1.42;;;;;;;;;;5113789;28;20031;-59
2022/06/21 14:42:33;;;;;;;3.58;1.20;;;;;;;;;;5108046;28;20146;-60
2022/06/21 14:45:11;;;;;;;3.88;1.50;;;;;;;;;;5110489;28;20032;-59
2022/06/21 14:47:45;;;;;;;5.60;1.67;;;;;;;;;;5113605;28;20478;-59
2022/06/21 14:50:38;;;;;;;4.78;1.40;;;;;;;;;;5111650;28;20471;-59
2022/06/21 14:53:22;;;;;;;4.57;1.67;;;;;;;;;;5106309;28;20176;-59
2022/06/21 14:56:12;;;;;;;2.53;1.35;;;;;;;;;;5111421;28;20031;-60
2022/06/21 14:59:17;;;;;;;4.53;1.52;;;;;;;;;;5105725;28;20027;-59
2022/06/21 15:01:45;;;;;;;5.65;1.38;;;;;;;;;;5105164;28;20034;-59
2022/06/21 15:04:31;;;;;;;3.85;1.33;;;;;;;;;;5111002;28;20486;-59
2022/06/21 15:07:28;;;;;;;4.30;1.50;;;;;;;;;;5104688;28;20372;-59
2022/06/21 15:10:28;;;;;;;6.72;1.60;;;;;;;;;;5091930;28;20039;-59
2022/06/21 15:12:57;;;;;;;;;;;;;;;;;;5077697;28;20100;-61
2022/06/21 15:15:24;;;;;;;3.10;1.40;;;;;;;;;;5106373;28;19916;-56
2022/06/21 15:18:02;;;;;;;3.63;1.40;;;;;;;;;;5106926;28;20084;-57
2022/06/21 15:20:43;;;;;;;5.05;1.38;;;;;;;;;;5112369;28;20043;-52
2022/06/21 15:23:08;;;;;;;4.35;1.40;;;;;;;;;;5093214;28;20027;-56
2022/06/21 15:25:59;;;;;;;3.25;1.60;;;;;;;;;;5110037;28;20046;-58
2022/06/21 15:28:31;;;;;;;3.53;1.48;;;;;;;;;;5092582;28;20028;-55
2022/06/21 15:31:31;;;;;;;3.60;1.48;;;;;;;;;;5091843;28;20028;-55
2022/06/21 15:34:09;;;;;;;2.58;1.42;;;;;;;;;;5083725;28;20040;-57
2022/06/21 15:36:50;;;;;;;3.75;1.58;;;;;;;;;;5099500;28;20016;-56
2022/06/21 15:39:21;;;;;;;3.45;1.38;;;;;;;;;;5109165;28;20411;-57
2022/06/21 15:41:50;;;;;;;3.97;1.40;;;;;;;;;;5108438;28;20096;-57
2022/06/21 15:44:47;;;;;;;3.08;1.50;;;;;;;;;;5111309;28;20114;-56
2022/06/21 15:50:27;;;;;;;6.00;1.50;;;;;;;;;;5110376;28;20084;-56
2022/06/21 15:53:00;;;;;;;3.88;1.17;;;;;;;;;;5090969;28;20397;-55
2022/06/21 15:55:54;;;;;;;2.25;1.27;;;;;;;;;;5102945;28;20585;-57
2022/06/21 15:58:44;;;;;;;3.03;1.30;;;;;;;;;;5104071;28;20031;-56
2022/06/21 16:01:53;;;;;;;6.70;1.70;;;;;;;;;;5099641;28;20036;-54
2022/06/21 16:04:33;;;;;;;3.33;1.60;;;;;;;;;;5074115;28;20097;-56
2022/06/21 16:07:16;;;;;;;;;;;;;;;;;;5101956;28;20468;-55
2022/06/21 16:09:45;;;;;;;4.18;1.60;;;;;;;;;;5111190;28;20294;-56
2022/06/21 16:12:36;;;;;;;4.43;1.40;;;;;;;;;;5105234;28;20032;-56